Aeroporto :
LOGIN :

Iscrizione | Disclaimer

   EN    FR    IT 

 










Sommario :    VFR   VFR Marginale   IFR   IFR Intensivo   IFR Molto Intensivo
Visibilità : 
Base nubi : 
>= 8 km
>= 3000ft
5 / 8 km
1000 / 3000 ft
1500m / 5 km
500 / 1000 ft
800 / 1500m
200 / 500 ft
< 800m
< 200 ft
Simboli :   Temporali  Nebbia  Neve Forte  Precipitazioni Forti  Vento > 20 kt
SIGMETs :   Varie  Temporali  Ghiacco  Turbolenza  Onda orograficha  Ceneri Vulcaniche






- Altitudine del aeroporto : 37 ft
- Codice IATA : HLY


EGOV - RAF Valley

ULTIMO METAR :
  • 141050Z 23016KT 9999 FEW018 15/09 Q0997 NOSIG RMK BLU BLU

METARs OBSOLETI :
  • 141020Z 23015KT 9999 FEW017 14/09 Q0997 NOSIG RMK BLU BLU
  • 140950Z 23017KT 9999 FEW016 BKN200 14/10 Q0997 NOSIG RMK BLU BLU
  • 140920Z 23017KT 9999 FEW016 SCT045 13/10 Q0997 NOSIG RMK BLU BLU
  • 140850Z 23016KT 9999 FEW011 BKN045 13/10 Q0997 NOSIG RMK BLU BLU
  • 140820Z 24016KT 9999 -SHRA FEW014 BKN050 13/10 Q0997 NOSIG RMK BLU BLU
  • 140750Z 24017KT 9999 -SHRA FEW013 BKN046 13/09 Q0996 TEMPO SCT014 RMK BLU TEMPO GRN
  • 140720Z 23017KT 9999 FEW013 BKN049 13/10 Q0996 TEMPO -SHRA SCT012 RMK BLU TEMPO GRN
  • 140650Z 23016KT 9999 FEW012 BKN084 13/11 Q0996 TEMPO -SHRA SCT012 RMK BLU TEMPO GRN
  • 140620Z 23016KT 9999 FEW009 BKN085 13/12 Q0996 TEMPO SCT012 RMK BLU TEMPO GRN

TAF TAF EGOV
Valido dal 14 a 09 ore il 14 a 18 ore UTC


140753Z 1409/1418 24016KT 9999 FEW013 BKN045
PROB30
TEMPO 1409/1410 SCT018TCU
BECMG 1415/1418 20013KT
PROB30
TEMPO 1417/1418 SCT018CB



MetMap, La meteo Aeronautica in un colpo d'occhio ! - Copyright ORBIFLY Dicembre 2007 - Disclaimer

ORBIFLY MET'MAP TEAM :

Programmazione e sviluppo : Alexandra Zaïnal
Concezione : Baudouin d'Aumeries
Supporto tecnico e logistico : Manuel Goepfert
Aiuto : Marc-Olivier Méhu
Aiuto per la traduzione : Arnaldo La Scala




FONTI E CREDITI :

   NOAA